Accueil
METAR-TAF:

METAR-TAF

Aéroports :

Damas, Syrie

Aéroport international de Damas

latitude: 33-25N, longitude: 036-31E, altitude: 608 m

Observation

Le bulletin a été fait il y a 52 minutes, à 03:00 UTC
Vent 10 kt de sud/sud-ouest
Température 10°C
Humidité 57%
Pression 1015 hPa
Visibilité 10 km ou plus
pas de nuages en-dessous de 1500 mètres et pas de cumulonimbus.

METAR: OSDI 230300Z 21010KT CAVOK 10/02 Q1015

Heure: 06:52 (03:52 UTC)

Prévision

Prévision valable du 23 à 00 UTC au 24 à 06 UTC
Vent 10 kt de sud/sud-ouest
Visibilité 10 km ou plus
Quelques nuages à une hauteur de 3000 ft
Temporairement
du 23 à 12 UTC au 23 à 15 UTC
Vent 15 kt de ouest/sud-ouest
Visibilité: 8000 m
Quelques nuages à une hauteur de 3000 ft

TAF: OSDI 2300/2406 21010KT 9999 FEW030 TEMPO 2312/2315 24015KT 8000 FEW030

Observations et prévisions météorologiques de plus de 4000 aéroports (messages METAR et TAF).

Les stations disponibles sont représentées par des disques jaunes et rouges sur la carte.

Passer la souris dessus pour voir le nom de la station.

Cliquer dessus pour voir les observations et prévisions météorologiques.

Pour changer de carte: cliquez sur les boutons verts avec une croix noire pour zoomer, sur le bouton vert avec un tiret pour effectuer un zoom arrière, ou sur les flèches vertes pour les cartes adjacentes.


METAR-TAF: